Time;durP1;ratioP1;P1;durP2;ratioP2;P2;SDS_P1;SDS_P2;PMS_P1;PMS_P2;Temp;Humidity;BMP_temperature;BMP_pressure;BME280_temperature;BME280_humidity;BME280_pressure;Samples;Min_cycle;Max_cycle;Signal;HPM_P1;HPM_P2
2020/12/22 00:00:15;;;;;;;7.78;7.03;;;;;;;;;;5055972;28;20224;-65
2020/12/22 00:02:45;;;;;;;6.95;6.25;;;;;;;;;;5056135;28;20242;-64
2020/12/22 00:05:12;;;;;;;8.38;7.57;;;;;;;;;;5056349;28;20208;-64
2020/12/22 00:07:41;;;;;;;8.63;7.72;;;;;;;;;;5055479;28;20200;-64
2020/12/22 00:10:13;;;;;;;7.97;7.18;;;;;;;;;;5055355;28;20283;-64
2020/12/22 00:12:39;;;;;;;8.13;7.00;;;;;;;;;;5055850;28;20188;-64
2020/12/22 00:15:09;;;;;;;9.45;8.55;;;;;;;;;;5055792;28;20687;-64
2020/12/22 00:17:41;;;;;;;8.10;7.40;;;;;;;;;;5055948;28;20193;-65
2020/12/22 00:20:08;;;;;;;8.60;7.70;;;;;;;;;;5055549;28;20266;-64
2020/12/22 00:22:34;;;;;;;8.30;7.60;;;;;;;;;;5056155;28;20201;-64
2020/12/22 00:25:01;;;;;;;8.35;7.55;;;;;;;;;;5056078;28;20196;-64
2020/12/22 00:27:31;;;;;;;9.45;7.93;;;;;;;;;;5054247;28;20270;-64
2020/12/22 00:29:58;;;;;;;33.55;27.48;;;;;;;;;;5054129;28;20255;-64
2020/12/22 00:32:25;;;;;;;9.32;8.43;;;;;;;;;;5055879;28;20189;-64
2020/12/22 00:34:52;;;;;;;7.90;7.22;;;;;;;;;;5055352;28;20200;-64
2020/12/22 00:37:18;;;;;;;12.52;7.18;;;;;;;;;;5055265;28;20671;-65
2020/12/22 00:39:45;;;;;;;9.02;7.95;;;;;;;;;;5055190;28;20223;-64
2020/12/22 00:42:11;;;;;;;9.77;8.77;;;;;;;;;;5055290;28;20187;-64
2020/12/22 00:44:38;;;;;;;11.65;6.13;;;;;;;;;;5055233;28;20648;-64
2020/12/22 00:47:14;;;;;;;7.82;7.05;;;;;;;;;;5055235;28;20184;-64
2020/12/22 00:49:40;;;;;;;7.05;6.35;;;;;;;;;;5054957;28;20225;-64
2020/12/22 00:52:09;;;;;;;10.77;5.80;;;;;;;;;;5053945;28;20243;-64
2020/12/22 00:54:35;;;;;;;5.20;4.70;;;;;;;;;;5055261;28;20286;-64
2020/12/22 00:57:02;;;;;;;5.53;5.03;;;;;;;;;;5055390;28;20280;-65
2020/12/22 00:59:28;;;;;;;5.10;4.60;;;;;;;;;;5055071;28;20224;-64
2020/12/22 01:01:55;;;;;;;5.28;4.85;;;;;;;;;;5053599;28;20208;-64
2020/12/22 01:04:22;;;;;;;6.05;5.57;;;;;;;;;;5055097;28;20276;-64
2020/12/22 01:06:49;;;;;;;4.18;3.88;;;;;;;;;;5054609;28;20196;-64
2020/12/22 01:09:16;;;;;;;4.20;3.90;;;;;;;;;;5055045;28;20201;-64
2020/12/22 01:11:42;;;;;;;5.15;3.30;;;;;;;;;;5054824;28;20238;-64
2020/12/22 01:14:10;;;;;;;3.35;3.15;;;;;;;;;;5053384;28;20197;-64
2020/12/22 01:16:36;;;;;;;4.22;2.85;;;;;;;;;;5054645;28;20188;-64
2020/12/22 01:19:03;;;;;;;5.63;2.60;;;;;;;;;;5054530;28;20196;-64
2020/12/22 01:21:30;;;;;;;3.97;2.75;;;;;;;;;;5054052;28;20212;-65
2020/12/22 01:23:58;;;;;;;2.90;2.70;;;;;;;;;;5054256;28;20295;-64
2020/12/22 01:26:26;;;;;;;2.90;2.70;;;;;;;;;;5054637;28;20204;-65
2020/12/22 01:28:55;;;;;;;2.00;1.90;;;;;;;;;;5054342;28;20197;-65
2020/12/22 01:31:22;;;;;;;3.30;3.00;;;;;;;;;;5054752;28;20546;-65
2020/12/22 01:33:49;;;;;;;2.47;2.28;;;;;;;;;;5054602;28;20262;-65
2020/12/22 01:36:18;;;;;;;4.10;2.45;;;;;;;;;;5053995;28;20196;-64
2020/12/22 01:38:48;;;;;;;3.25;2.50;;;;;;;;;;5054077;28;20196;-65
2020/12/22 01:41:16;;;;;;;3.17;3.00;;;;;;;;;;5052988;28;20220;-65
2020/12/22 01:44:03;;;;;;;2.65;2.30;;;;;;;;;;5054239;28;20176;-65
2020/12/22 01:46:33;;;;;;;3.38;3.08;;;;;;;;;;5053314;28;20192;-66
2020/12/22 01:49:00;;;;;;;3.40;3.20;;;;;;;;;;5054274;28;20228;-66
2020/12/22 01:51:29;;;;;;;3.30;3.05;;;;;;;;;;5054146;28;20208;-66
2020/12/22 01:53:56;;;;;;;2.90;2.70;;;;;;;;;;5054221;28;20204;-67
2020/12/22 01:56:24;;;;;;;2.00;1.90;;;;;;;;;;5054938;28;20209;-66
2020/12/22 01:58:50;;;;;;;2.83;2.72;;;;;;;;;;5053926;28;20205;-67
2020/12/22 02:01:17;;;;;;;2.97;2.00;;;;;;;;;;5053957;28;20216;-66
2020/12/22 02:03:45;;;;;;;2.33;2.22;;;;;;;;;;5053198;28;20616;-66
2020/12/22 02:06:13;;;;;;;2.78;2.35;;;;;;;;;;5053632;28;20185;-66
2020/12/22 02:08:40;;;;;;;2.33;2.20;;;;;;;;;;5053619;28;20200;-66
2020/12/22 02:11:09;;;;;;;2.25;2.15;;;;;;;;;;5053423;28;20211;-66
2020/12/22 02:13:43;;;;;;;2.53;2.33;;;;;;;;;;5053475;28;20246;-66
2020/12/22 02:16:12;;;;;;;2.97;2.88;;;;;;;;;;5053832;28;20197;-66
2020/12/22 02:18:42;;;;;;;2.28;2.17;;;;;;;;;;5053393;28;20188;-66
2020/12/22 02:21:08;;;;;;;2.50;2.30;;;;;;;;;;5053507;28;20587;-66
2020/12/22 02:23:35;;;;;;;2.03;1.92;;;;;;;;;;5054002;28;20188;-66
2020/12/22 02:26:01;;;;;;;2.08;1.98;;;;;;;;;;5053807;28;20595;-66
2020/12/22 02:28:28;;;;;;;1.65;1.55;;;;;;;;;;5053723;28;20209;-66
2020/12/22 02:30:55;;;;;;;1.90;1.80;;;;;;;;;;5053360;28;20637;-66
2020/12/22 02:33:21;;;;;;;2.47;2.38;;;;;;;;;;5054540;28;20208;-66
2020/12/22 02:35:48;;;;;;;2.33;1.85;;;;;;;;;;5057822;28;20250;-66
2020/12/22 02:38:16;;;;;;;3.70;3.40;;;;;;;;;;5057622;28;20192;-66
2020/12/22 02:40:44;;;;;;;3.25;2.55;;;;;;;;;;5057645;28;20216;-66
2020/12/22 02:43:12;;;;;;;2.08;1.98;;;;;;;;;;5057637;28;20184;-66
2020/12/22 02:45:41;;;;;;;1.95;1.85;;;;;;;;;;5057524;28;20208;-66
2020/12/22 02:48:11;;;;;;;1.65;1.55;;;;;;;;;;5057233;28;20220;-66
2020/12/22 02:50:39;;;;;;;1.67;1.55;;;;;;;;;;5057630;28;20545;-66
2020/12/22 02:53:06;;;;;;;2.33;1.90;;;;;;;;;;5057309;28;20208;-67
2020/12/22 02:55:33;;;;;;;2.03;1.90;;;;;;;;;;5057430;28;20184;-67
2020/12/22 02:58:00;;;;;;;1.70;1.45;;;;;;;;;;5057300;28;20189;-67
2020/12/22 03:00:30;;;;;;;1.75;1.65;;;;;;;;;;5057214;28;20216;-67
2020/12/22 03:02:59;;;;;;;2.65;2.45;;;;;;;;;;5057111;28;20250;-67
2020/12/22 03:05:25;;;;;;;1.92;1.83;;;;;;;;;;5055815;28;20208;-67
2020/12/22 03:07:52;;;;;;;4.20;2.00;;;;;;;;;;5057301;28;20200;-66
2020/12/22 03:10:21;;;;;;;2.70;1.75;;;;;;;;;;5056061;28;20211;-67
2020/12/22 03:12:50;;;;;;;2.58;1.60;;;;;;;;;;5057172;28;20203;-67
2020/12/22 03:15:16;;;;;;;1.77;1.67;;;;;;;;;;5056796;28;20292;-67
2020/12/22 03:17:44;;;;;;;1.73;1.63;;;;;;;;;;5056920;28;20683;-67
2020/12/22 03:20:12;;;;;;;1.70;1.60;;;;;;;;;;5057584;28;20221;-67
2020/12/22 03:22:41;;;;;;;1.73;1.63;;;;;;;;;;5057423;28;20712;-67
2020/12/22 03:25:08;;;;;;;2.17;1.50;;;;;;;;;;5055409;28;20559;-67
2020/12/22 03:27:37;;;;;;;2.35;1.48;;;;;;;;;;5056503;28;20633;-67
2020/12/22 03:30:08;;;;;;;1.42;1.33;;;;;;;;;;5056750;28;20225;-66
2020/12/22 03:32:35;;;;;;;1.80;1.50;;;;;;;;;;5056724;28;20204;-65
2020/12/22 03:35:03;;;;;;;1.65;1.23;;;;;;;;;;5057363;28;20212;-65
2020/12/22 03:37:30;;;;;;;1.67;1.58;;;;;;;;;;5056487;28;20196;-65
2020/12/22 03:40:04;;;;;;;2.63;1.70;;;;;;;;;;5055317;28;20254;-65
2020/12/22 03:42:31;;;;;;;1.50;1.02;;;;;;;;;;5056667;28;20205;-65
2020/12/22 03:44:58;;;;;;;1.40;1.30;;;;;;;;;;5055671;28;20200;-65
2020/12/22 03:47:24;;;;;;;1.10;1.10;;;;;;;;;;5038340;28;20209;-65
2020/12/22 03:49:54;;;;;;;2.28;1.20;;;;;;;;;;5056222;28;20661;-65
2020/12/22 03:52:20;;;;;;;1.00;1.00;;;;;;;;;;5056153;28;20271;-65
2020/12/22 03:54:47;;;;;;;1.00;1.00;;;;;;;;;;5056398;28;20606;-65
2020/12/22 03:57:17;;;;;;;0.93;0.90;;;;;;;;;;5056126;28;20195;-65
2020/12/22 03:59:44;;;;;;;1.30;1.20;;;;;;;;;;5056260;28;20637;-65
2020/12/22 04:02:11;;;;;;;1.55;1.45;;;;;;;;;;5055757;28;20266;-65
2020/12/22 04:04:38;;;;;;;1.80;1.13;;;;;;;;;;5055798;28;20202;-65
2020/12/22 04:07:05;;;;;;;1.33;1.00;;;;;;;;;;5056141;28;20193;-65
2020/12/22 04:09:31;;;;;;;0.90;0.90;;;;;;;;;;5055796;28;20203;-65
2020/12/22 04:12:00;;;;;;;1.70;1.20;;;;;;;;;;5055803;28;20196;-65
2020/12/22 04:14:26;;;;;;;2.42;1.10;;;;;;;;;;5055840;28;20205;-65
2020/12/22 04:16:53;;;;;;;0.90;0.90;;;;;;;;;;5056059;28;20184;-64
2020/12/22 04:19:19;;;;;;;2.35;0.85;;;;;;;;;;5055724;28;20197;-65
2020/12/22 04:21:47;;;;;;;0.93;0.93;;;;;;;;;;5055908;28;20267;-64
2020/12/22 04:24:17;;;;;;;1.10;1.10;;;;;;;;;;5055877;28;20624;-65
2020/12/22 04:26:44;;;;;;;0.90;0.70;;;;;;;;;;5054551;28;20201;-64
2020/12/22 04:29:10;;;;;;;1.42;1.10;;;;;;;;;;5055562;28;20564;-64
2020/12/22 04:31:39;;;;;;;1.33;0.70;;;;;;;;;;5055743;28;20177;-65
2020/12/22 04:34:06;;;;;;;1.00;0.90;;;;;;;;;;5055481;28;20637;-64
2020/12/22 04:36:34;;;;;;;1.23;1.13;;;;;;;;;;5055643;28;20670;-65
2020/12/22 04:39:00;;;;;;;0.80;0.80;;;;;;;;;;5055385;28;20647;-65
2020/12/22 04:41:31;;;;;;;1.10;1.00;;;;;;;;;;5055409;28;20217;-65
2020/12/22 04:43:58;;;;;;;1.00;0.90;;;;;;;;;;5055122;28;20635;-65
2020/12/22 04:46:25;;;;;;;3.80;1.00;;;;;;;;;;5054552;28;20758;-65
2020/12/22 04:48:56;;;;;;;5.75;0.93;;;;;;;;;;5067088;28;20216;-65
2020/12/22 04:51:23;;;;;;;2.17;1.10;;;;;;;;;;5075237;28;20196;-65
2020/12/22 04:53:50;;;;;;;1.25;1.05;;;;;;;;;;5075210;28;20196;-65
2020/12/22 04:56:19;;;;;;;1.13;0.80;;;;;;;;;;5074339;28;20203;-65
2020/12/22 04:58:46;;;;;;;0.88;0.88;;;;;;;;;;5074352;28;20207;-65
2020/12/22 05:01:16;;;;;;;0.85;0.85;;;;;;;;;;5074974;28;20699;-65
2020/12/22 05:03:43;;;;;;;1.10;1.00;;;;;;;;;;5074955;28;20306;-65
2020/12/22 05:06:10;;;;;;;0.70;0.70;;;;;;;;;;5074698;28;20195;-65
2020/12/22 05:08:37;;;;;;;1.80;1.00;;;;;;;;;;5075507;28;20579;-66
2020/12/22 05:11:03;;;;;;;1.23;0.90;;;;;;;;;;5074202;28;20258;-66
2020/12/22 05:13:30;;;;;;;0.95;0.82;;;;;;;;;;5074397;28;20269;-65
2020/12/22 05:15:58;;;;;;;0.98;0.88;;;;;;;;;;5074326;28;20279;-65
2020/12/22 05:18:25;;;;;;;0.75;0.75;;;;;;;;;;5074570;28;20200;-65
2020/12/22 05:20:55;;;;;;;1.77;0.90;;;;;;;;;;5074343;28;20223;-65
2020/12/22 05:23:23;;;;;;;1.00;0.90;;;;;;;;;;5056835;28;20290;-65
2020/12/22 05:25:50;;;;;;;0.80;0.80;;;;;;;;;;5074489;28;20200;-65
2020/12/22 05:28:22;;;;;;;0.93;0.88;;;;;;;;;;5074713;28;20685;-65
2020/12/22 05:30:50;;;;;;;1.63;0.90;;;;;;;;;;5074070;28;20236;-65
2020/12/22 05:33:17;;;;;;;0.70;0.70;;;;;;;;;;5074222;28;20230;-65
2020/12/22 05:35:47;;;;;;;1.17;1.10;;;;;;;;;;5074601;28;20183;-65
2020/12/22 05:38:15;;;;;;;2.47;1.08;;;;;;;;;;5074012;28;20196;-65
2020/12/22 05:40:42;;;;;;;0.80;0.77;;;;;;;;;;5074300;28;20228;-65
2020/12/22 05:43:09;;;;;;;1.55;0.93;;;;;;;;;;5074339;28;20207;-66
2020/12/22 05:45:37;;;;;;;0.70;0.70;;;;;;;;;;5073987;28;20192;-66
2020/12/22 05:48:05;;;;;;;1.50;0.60;;;;;;;;;;5074244;28;20303;-66
2020/12/22 05:50:33;;;;;;;0.68;0.60;;;;;;;;;;5073832;28;20226;-65
2020/12/22 05:53:00;;;;;;;0.80;0.70;;;;;;;;;;5074065;28;20192;-66
2020/12/22 05:55:28;;;;;;;0.68;0.68;;;;;;;;;;5073482;28;20199;-66
2020/12/22 05:58:06;;;;;;;0.60;0.60;;;;;;;;;;5074027;28;20192;-66
2020/12/22 06:00:33;;;;;;;1.23;0.80;;;;;;;;;;5074274;28;20204;-65
2020/12/22 06:03:05;;;;;;;0.80;0.60;;;;;;;;;;5073460;28;20200;-66
2020/12/22 06:05:35;;;;;;;0.50;0.50;;;;;;;;;;5073649;28;20278;-65
2020/12/22 06:08:04;;;;;;;1.95;0.90;;;;;;;;;;5073704;28;20188;-66
2020/12/22 06:10:31;;;;;;;0.50;0.50;;;;;;;;;;5074474;28;20204;-65
2020/12/22 06:12:59;;;;;;;1.00;0.90;;;;;;;;;;5073600;28;20210;-66
2020/12/22 06:15:26;;;;;;;1.60;0.95;;;;;;;;;;5073978;28;20226;-68
2020/12/22 06:17:52;;;;;;;2.70;0.68;;;;;;;;;;5073408;28;20210;-65
2020/12/22 06:20:22;;;;;;;1.70;0.70;;;;;;;;;;5073610;28;20192;-65
2020/12/22 06:22:50;;;;;;;0.63;0.60;;;;;;;;;;5074085;28;20196;-65
2020/12/22 06:25:22;;;;;;;1.30;0.80;;;;;;;;;;5073473;28;20215;-65
2020/12/22 06:27:49;;;;;;;0.70;0.70;;;;;;;;;;5073579;28;20229;-65
2020/12/22 06:30:17;;;;;;;1.33;0.77;;;;;;;;;;5073082;28;20288;-66
2020/12/22 06:32:45;;;;;;;1.85;0.63;;;;;;;;;;5073289;28;20203;-65
2020/12/22 06:35:29;;;;;;;1.75;0.90;;;;;;;;;;5073633;28;20184;-65
2020/12/22 06:37:56;;;;;;;0.63;0.63;;;;;;;;;;5073380;28;20215;-65
2020/12/22 06:40:43;;;;;;;0.70;0.70;;;;;;;;;;5073259;28;20199;-65
2020/12/22 06:43:11;;;;;;;0.90;0.60;;;;;;;;;;5073003;28;20290;-65
2020/12/22 06:45:39;;;;;;;0.95;0.80;;;;;;;;;;5073584;28;20184;-65
2020/12/22 06:48:24;;;;;;;0.80;0.80;;;;;;;;;;5073384;28;20204;-66
2020/12/22 06:50:52;;;;;;;0.82;0.82;;;;;;;;;;5073869;28;20181;-66
2020/12/22 06:53:35;;;;;;;0.73;0.73;;;;;;;;;;5073143;28;20288;-66
2020/12/22 06:56:08;;;;;;;1.75;0.88;;;;;;;;;;5073362;28;20212;-65
2020/12/22 06:58:42;;;;;;;0.95;0.95;;;;;;;;;;5074075;28;20204;-66
2020/12/22 07:01:29;;;;;;;1.63;0.60;;;;;;;;;;5073554;28;20228;-66
2020/12/22 07:04:16;;;;;;;0.80;0.80;;;;;;;;;;5073379;28;20168;-67
2020/12/22 07:06:49;;;;;;;1.00;0.93;;;;;;;;;;5073036;28;20203;-67
2020/12/22 07:09:24;;;;;;;1.17;0.90;;;;;;;;;;5073347;28;20208;-65
2020/12/22 07:11:51;;;;;;;1.58;1.00;;;;;;;;;;5073134;28;20537;-65
2020/12/22 07:14:19;;;;;;;0.70;0.70;;;;;;;;;;5073376;28;20188;-65
2020/12/22 07:16:54;;;;;;;1.00;0.82;;;;;;;;;;5073189;28;20194;-65
2020/12/22 07:19:30;;;;;;;1.35;1.25;;;;;;;;;;5073179;28;20595;-65
2020/12/22 07:22:01;;;;;;;1.33;0.88;;;;;;;;;;5075893;28;20235;-66
2020/12/22 07:24:29;;;;;;;1.00;0.80;;;;;;;;;;5076563;28;20203;-66
2020/12/22 07:26:56;;;;;;;1.73;1.10;;;;;;;;;;5076465;28;20204;-68
2020/12/22 07:29:23;;;;;;;1.55;1.05;;;;;;;;;;5075485;28;20277;-66
2020/12/22 07:31:50;;;;;;;1.35;0.85;;;;;;;;;;5076929;28;20580;-66
2020/12/22 07:34:19;;;;;;;1.30;1.20;;;;;;;;;;5076644;28;20196;-66
2020/12/22 07:36:46;;;;;;;0.93;0.93;;;;;;;;;;5075434;28;20195;-66
2020/12/22 07:39:23;;;;;;;1.17;1.00;;;;;;;;;;5076823;28;20609;-66
2020/12/22 07:41:50;;;;;;;1.02;0.93;;;;;;;;;;5076364;28;20219;-65
2020/12/22 07:44:18;;;;;;;0.80;0.80;;;;;;;;;;5076556;28;20195;-65
2020/12/22 07:46:49;;;;;;;2.42;1.10;;;;;;;;;;5076465;28;20196;-65
2020/12/22 07:49:16;;;;;;;1.00;1.00;;;;;;;;;;5075837;28;20216;-65
2020/12/22 07:51:48;;;;;;;1.00;0.90;;;;;;;;;;5076387;28;20192;-65
2020/12/22 07:54:15;;;;;;;1.30;1.10;;;;;;;;;;5076410;28;20195;-65
2020/12/22 07:56:44;;;;;;;1.45;0.98;;;;;;;;;;5076226;28;20237;-65
2020/12/22 07:59:17;;;;;;;1.30;1.20;;;;;;;;;;5076470;28;20180;-65
2020/12/22 08:01:47;;;;;;;1.02;1.02;;;;;;;;;;5076252;28;20212;-65
2020/12/22 08:04:18;;;;;;;0.90;0.90;;;;;;;;;;5075936;28;20188;-65
2020/12/22 08:06:54;;;;;;;1.20;1.10;;;;;;;;;;5075988;28;20188;-66
2020/12/22 08:09:26;;;;;;;3.97;1.02;;;;;;;;;;5075859;28;20184;-66
2020/12/22 08:11:53;;;;;;;1.75;1.30;;;;;;;;;;5075861;28;20176;-66
2020/12/22 08:14:22;;;;;;;1.00;1.00;;;;;;;;;;5076110;28;20188;-66
2020/12/22 08:16:49;;;;;;;2.85;1.13;;;;;;;;;;5075714;28;20188;-66
2020/12/22 08:19:18;;;;;;;1.52;1.42;;;;;;;;;;5075853;28;20196;-65
2020/12/22 08:21:46;;;;;;;1.05;1.00;;;;;;;;;;5074369;28;20215;-65
2020/12/22 08:24:14;;;;;;;1.17;1.17;;;;;;;;;;5075670;28;20195;-66
2020/12/22 08:26:48;;;;;;;1.33;1.30;;;;;;;;;;5075836;28;20275;-66
2020/12/22 08:29:15;;;;;;;13.93;1.95;;;;;;;;;;5075265;28;20220;-66
2020/12/22 08:31:45;;;;;;;1.45;1.35;;;;;;;;;;5075161;28;20237;-66
2020/12/22 08:34:14;;;;;;;3.03;1.50;;;;;;;;;;5075468;28;20192;-66
2020/12/22 08:36:43;;;;;;;1.90;1.80;;;;;;;;;;5075691;28;20666;-66
2020/12/22 08:39:16;;;;;;;2.33;1.95;;;;;;;;;;5072924;28;20192;-67
2020/12/22 08:41:44;;;;;;;4.00;1.58;;;;;;;;;;5064035;28;20219;-66
2020/12/22 08:44:11;;;;;;;1.50;1.40;;;;;;;;;;5074959;28;20203;-66
2020/12/22 08:46:40;;;;;;;1.10;1.10;;;;;;;;;;5074826;28;20668;-66
2020/12/22 08:49:11;;;;;;;1.30;1.20;;;;;;;;;;5074274;28;20223;-66
2020/12/22 08:51:38;;;;;;;1.50;1.40;;;;;;;;;;5067913;28;20209;-66
2020/12/22 08:54:06;;;;;;;1.60;1.50;;;;;;;;;;5067985;28;20196;-66
2020/12/22 08:56:39;;;;;;;1.58;1.17;;;;;;;;;;5060120;28;20683;-66
2020/12/22 08:59:08;;;;;;;2.05;1.67;;;;;;;;;;5073571;28;20208;-66
2020/12/22 09:01:40;;;;;;;1.70;1.60;;;;;;;;;;5074196;28;20239;-66
2020/12/22 09:04:07;;;;;;;1.13;1.02;;;;;;;;;;5074310;28;20195;-66
2020/12/22 09:06:34;;;;;;;5.65;1.13;;;;;;;;;;5074346;28;20636;-66
2020/12/22 09:09:02;;;;;;;1.17;1.17;;;;;;;;;;5074289;28;20190;-66
2020/12/22 09:11:29;;;;;;;1.30;1.20;;;;;;;;;;5074076;28;20196;-66
2020/12/22 09:14:03;;;;;;;1.95;1.48;;;;;;;;;;5064496;28;20637;-66
2020/12/22 09:16:49;;;;;;;2.45;1.20;;;;;;;;;;5054474;28;20195;-66
2020/12/22 09:19:16;;;;;;;1.35;1.25;;;;;;;;;;5072379;28;20386;-66
2020/12/22 09:21:43;;;;;;;1.65;1.55;;;;;;;;;;5074252;28;20215;-66
2020/12/22 09:24:15;;;;;;;2.20;1.30;;;;;;;;;;5074295;28;20192;-65
2020/12/22 09:26:55;;;;;;;1.08;1.00;;;;;;;;;;5074342;28;20176;-65
2020/12/22 09:29:23;;;;;;;1.17;1.13;;;;;;;;;;5074318;28;20602;-65
2020/12/22 09:31:53;;;;;;;5.50;1.73;;;;;;;;;;5074444;28;20181;-65
2020/12/22 09:34:20;;;;;;;1.40;1.30;;;;;;;;;;5073383;28;20200;-65
2020/12/22 09:36:52;;;;;;;2.58;1.63;;;;;;;;;;5073932;28;20196;-66
2020/12/22 09:39:19;;;;;;;1.58;1.48;;;;;;;;;;5074879;28;20192;-65
2020/12/22 09:41:45;;;;;;;2.72;1.60;;;;;;;;;;5073994;28;20223;-65
2020/12/22 09:44:12;;;;;;;1.30;1.30;;;;;;;;;;5071965;28;20211;-65
2020/12/22 09:46:39;;;;;;;1.30;1.20;;;;;;;;;;5072665;28;20196;-65
2020/12/22 09:49:07;;;;;;;2.45;2.15;;;;;;;;;;5072742;28;20231;-65
2020/12/22 09:51:36;;;;;;;1.70;1.60;;;;;;;;;;5074206;28;20200;-65
2020/12/22 09:54:03;;;;;;;1.98;1.23;;;;;;;;;;5073935;28;20267;-66
2020/12/22 09:56:31;;;;;;;1.00;1.00;;;;;;;;;;5072946;28;20210;-65
2020/12/22 09:58:58;;;;;;;1.52;1.42;;;;;;;;;;5074311;28;20181;-65
2020/12/22 10:01:25;;;;;;;1.20;1.20;;;;;;;;;;5074192;28;20250;-66
2020/12/22 10:03:53;;;;;;;1.42;1.33;;;;;;;;;;5073977;28;20220;-66
2020/12/22 10:06:21;;;;;;;1.10;1.00;;;;;;;;;;5074094;28;20191;-65
2020/12/22 10:08:48;;;;;;;2.67;1.25;;;;;;;;;;5073823;28;20196;-65
2020/12/22 10:11:15;;;;;;;1.30;1.20;;;;;;;;;;5072669;28;20204;-65
2020/12/22 10:13:42;;;;;;;1.10;1.00;;;;;;;;;;5073914;28;20184;-65
2020/12/22 10:16:11;;;;;;;1.38;1.27;;;;;;;;;;5073934;28;20191;-65
2020/12/22 10:18:39;;;;;;;1.30;1.20;;;;;;;;;;5073803;28;20204;-65
2020/12/22 10:21:13;;;;;;;1.83;1.20;;;;;;;;;;5073447;28;20242;-65
2020/12/22 10:23:43;;;;;;;1.88;1.65;;;;;;;;;;5072238;28;21134;-65
2020/12/22 10:26:11;;;;;;;4.55;1.30;;;;;;;;;;5073525;28;20207;-65
2020/12/22 10:28:38;;;;;;;1.25;1.15;;;;;;;;;;5072380;28;20196;-65
2020/12/22 10:31:05;;;;;;;1.20;1.20;;;;;;;;;;5073328;28;20259;-65
2020/12/22 10:33:32;;;;;;;2.35;1.50;;;;;;;;;;5073857;28;20184;-65
2020/12/22 10:36:03;;;;;;;1.70;1.60;;;;;;;;;;5073827;28;20245;-65
2020/12/22 10:38:32;;;;;;;1.58;1.48;;;;;;;;;;5073897;28;20172;-65
2020/12/22 10:40:59;;;;;;;1.60;1.50;;;;;;;;;;5073610;28;20282;-65
2020/12/22 10:43:26;;;;;;;1.60;1.50;;;;;;;;;;5073767;28;20298;-65
2020/12/22 10:45:53;;;;;;;3.28;1.58;;;;;;;;;;5073673;28;20238;-65
2020/12/22 10:48:20;;;;;;;5.13;1.73;;;;;;;;;;5073555;28;20214;-65
2020/12/22 10:50:48;;;;;;;1.70;1.60;;;;;;;;;;5073609;28;20713;-65
2020/12/22 10:53:15;;;;;;;1.80;1.70;;;;;;;;;;5073549;28;20218;-65
2020/12/22 10:55:43;;;;;;;2.45;1.50;;;;;;;;;;5076394;28;20196;-65
2020/12/22 10:58:09;;;;;;;1.70;1.60;;;;;;;;;;5077637;28;20666;-65
2020/12/22 11:00:37;;;;;;;1.35;1.25;;;;;;;;;;5077588;28;20613;-65
2020/12/22 11:03:08;;;;;;;1.60;1.50;;;;;;;;;;5077115;28;20215;-65
2020/12/22 11:08:22;;;;;;;1.58;1.10;;;;;;;;;;5077215;28;20643;-65
2020/12/22 11:10:50;;;;;;;1.40;1.30;;;;;;;;;;5077239;28;20257;-65
2020/12/22 11:13:17;;;;;;;1.27;1.13;;;;;;;;;;5075960;28;20200;-65
2020/12/22 11:15:46;;;;;;;1.58;1.15;;;;;;;;;;5077591;28;20184;-65
2020/12/22 11:18:13;;;;;;;1.80;1.70;;;;;;;;;;5077123;28;20191;-65
2020/12/22 11:20:40;;;;;;;1.40;1.30;;;;;;;;;;5077294;28;20207;-65
2020/12/22 11:23:08;;;;;;;1.45;0.90;;;;;;;;;;5076872;28;20219;-65
2020/12/22 11:25:34;;;;;;;1.55;1.40;;;;;;;;;;5076500;28;20207;-65
2020/12/22 11:28:01;;;;;;;1.30;1.20;;;;;;;;;;5077296;28;20194;-65
2020/12/22 11:30:28;;;;;;;1.30;1.20;;;;;;;;;;5076827;28;20718;-66
2020/12/22 11:32:55;;;;;;;2.10;2.00;;;;;;;;;;5077140;28;20199;-65
2020/12/22 11:35:21;;;;;;;2.42;1.33;;;;;;;;;;5077163;28;20203;-65
2020/12/22 11:37:48;;;;;;;1.30;1.20;;;;;;;;;;5077189;28;20670;-65
2020/12/22 11:40:17;;;;;;;2.65;1.48;;;;;;;;;;5076926;28;20633;-65
2020/12/22 11:42:43;;;;;;;1.60;1.50;;;;;;;;;;5076397;28;20238;-66
2020/12/22 11:45:10;;;;;;;1.23;1.13;;;;;;;;;;5076615;28;20771;-66
2020/12/22 11:47:40;;;;;;;1.73;1.20;;;;;;;;;;5076657;28;20558;-65
2020/12/22 11:50:07;;;;;;;1.87;1.20;;;;;;;;;;5072636;28;20633;-65
2020/12/22 11:52:33;;;;;;;1.33;1.23;;;;;;;;;;5071531;28;20610;-65
2020/12/22 11:55:00;;;;;;;1.30;1.20;;;;;;;;;;5060356;28;20267;-65
2020/12/22 11:57:28;;;;;;;1.50;1.40;;;;;;;;;;5075629;28;20641;-65
2020/12/22 11:59:54;;;;;;;1.87;1.20;;;;;;;;;;5063158;28;20615;-65
2020/12/22 12:02:21;;;;;;;2.10;1.37;;;;;;;;;;5060671;28;20672;-66
2020/12/22 12:04:47;;;;;;;1.43;1.33;;;;;;;;;;5075213;28;20990;-65
2020/12/22 12:07:16;;;;;;;1.50;1.40;;;;;;;;;;5073796;28;20661;-65
2020/12/22 12:09:42;;;;;;;1.73;1.40;;;;;;;;;;5075210;28;20640;-65
2020/12/22 12:12:11;;;;;;;3.25;3.05;;;;;;;;;;5074919;28;20630;-65
2020/12/22 12:14:37;;;;;;;1.50;1.40;;;;;;;;;;5075178;28;20191;-65
2020/12/22 12:17:04;;;;;;;1.80;1.70;;;;;;;;;;5074850;28;20222;-65
2020/12/22 12:19:32;;;;;;;1.40;1.30;;;;;;;;;;5074591;28;20618;-65
2020/12/22 12:22:01;;;;;;;4.60;1.50;;;;;;;;;;5075061;28;20657;-65
2020/12/22 12:24:28;;;;;;;1.20;1.10;;;;;;;;;;5070831;28;20614;-65
2020/12/22 12:26:56;;;;;;;1.73;1.50;;;;;;;;;;5053514;28;20639;-65
2020/12/22 12:29:22;;;;;;;1.33;1.23;;;;;;;;;;5054450;28;20629;-65
2020/12/22 12:31:49;;;;;;;3.20;1.57;;;;;;;;;;5054900;28;20618;-65
2020/12/22 12:34:16;;;;;;;1.67;1.53;;;;;;;;;;5054658;28;20638;-65
2020/12/22 12:36:43;;;;;;;1.23;1.17;;;;;;;;;;5054544;28;20634;-65
2020/12/22 12:39:10;;;;;;;1.67;1.20;;;;;;;;;;5054532;28;20622;-65
2020/12/22 12:41:37;;;;;;;3.23;1.60;;;;;;;;;;5054766;28;20728;-65
2020/12/22 12:44:06;;;;;;;1.37;1.27;;;;;;;;;;5054865;28;20609;-65
2020/12/22 12:46:34;;;;;;;1.67;1.03;;;;;;;;;;5058814;28;20622;-66
2020/12/22 12:49:04;;;;;;;1.60;1.03;;;;;;;;;;5074663;28;20654;-65
2020/12/22 12:51:31;;;;;;;1.47;1.37;;;;;;;;;;5074423;28;20614;-65
2020/12/22 12:54:01;;;;;;;1.77;1.67;;;;;;;;;;5074827;28;20626;-66
2020/12/22 12:56:27;;;;;;;2.05;1.95;;;;;;;;;;5074031;28;20633;-65
2020/12/22 12:58:54;;;;;;;1.70;1.60;;;;;;;;;;5067922;28;20185;-65
2020/12/22 13:01:29;;;;;;;1.87;1.77;;;;;;;;;;5054796;28;20599;-65
2020/12/22 13:03:55;;;;;;;1.95;1.80;;;;;;;;;;5053000;28;21017;-65
2020/12/22 13:06:25;;;;;;;2.05;1.85;;;;;;;;;;5054457;28;20303;-66
2020/12/22 13:08:52;;;;;;;2.92;1.85;;;;;;;;;;5052860;28;20197;-66
2020/12/22 13:11:18;;;;;;;2.50;2.40;;;;;;;;;;5053894;28;20192;-66
2020/12/22 13:13:45;;;;;;;2.80;2.28;;;;;;;;;;5053431;28;20631;-65
2020/12/22 13:16:12;;;;;;;2.80;2.57;;;;;;;;;;5063380;28;20196;-66
2020/12/22 13:18:40;;;;;;;3.15;2.95;;;;;;;;;;5072978;28;20626;-66
2020/12/22 13:21:06;;;;;;;3.22;2.60;;;;;;;;;;5073747;28;20196;-66
2020/12/22 13:23:35;;;;;;;2.92;2.72;;;;;;;;;;5074282;28;20258;-66
2020/12/22 13:26:04;;;;;;;2.42;2.33;;;;;;;;;;5074594;28;20191;-66
2020/12/22 13:28:30;;;;;;;2.75;2.25;;;;;;;;;;5073785;28;20202;-65
2020/12/22 13:30:58;;;;;;;2.47;2.28;;;;;;;;;;5071083;28;20228;-66
2020/12/22 13:33:25;;;;;;;2.95;2.75;;;;;;;;;;5055715;28;20216;-66
2020/12/22 13:35:51;;;;;;;6.38;2.90;;;;;;;;;;5064147;28;20192;-67
2020/12/22 13:38:18;;;;;;;8.50;7.63;;;;;;;;;;5073323;28;20549;-66
2020/12/22 13:40:45;;;;;;;3.08;2.60;;;;;;;;;;5073519;28;20199;-66
2020/12/22 13:43:11;;;;;;;5.13;2.60;;;;;;;;;;5073444;28;20224;-66
2020/12/22 13:45:38;;;;;;;2.58;2.47;;;;;;;;;;5073938;28;20188;-66
2020/12/22 13:48:06;;;;;;;3.40;3.13;;;;;;;;;;5073926;28;20207;-66
2020/12/22 13:50:36;;;;;;;2.65;2.50;;;;;;;;;;5074136;28;20258;-66
2020/12/22 13:53:03;;;;;;;3.72;2.70;;;;;;;;;;5073680;28;20581;-66
2020/12/22 13:55:30;;;;;;;4.72;4.35;;;;;;;;;;5073850;28;20214;-65
2020/12/22 13:57:58;;;;;;;5.97;2.95;;;;;;;;;;5073751;28;20188;-65
2020/12/22 14:00:26;;;;;;;3.42;3.13;;;;;;;;;;5073700;28;20200;-66
2020/12/22 14:02:53;;;;;;;2.97;2.67;;;;;;;;;;5073794;28;20689;-66
2020/12/22 14:05:20;;;;;;;3.08;2.38;;;;;;;;;;5073708;28;20632;-66
2020/12/22 14:07:46;;;;;;;3.22;2.90;;;;;;;;;;5073651;28;20192;-66
2020/12/22 14:10:13;;;;;;;2.50;2.40;;;;;;;;;;5073895;28;20671;-66
2020/12/22 14:12:39;;;;;;;3.00;2.80;;;;;;;;;;5073093;28;20211;-66
2020/12/22 14:15:09;;;;;;;3.67;3.37;;;;;;;;;;5073798;28;20217;-66
2020/12/22 14:17:39;;;;;;;2.70;2.50;;;;;;;;;;5073754;28;20595;-67
2020/12/22 14:20:06;;;;;;;2.50;2.30;;;;;;;;;;5073623;28;20561;-67
2020/12/22 14:22:33;;;;;;;2.70;2.50;;;;;;;;;;5073422;28;20220;-67
2020/12/22 14:25:01;;;;;;;3.35;3.05;;;;;;;;;;5058438;28;20606;-67
2020/12/22 14:27:29;;;;;;;3.60;2.50;;;;;;;;;;5072859;28;20275;-71
2020/12/22 14:29:57;;;;;;;3.60;2.53;;;;;;;;;;5072064;28;20228;-66
2020/12/22 14:32:25;;;;;;;2.40;2.30;;;;;;;;;;5072663;28;20200;-67
2020/12/22 14:34:51;;;;;;;2.70;2.60;;;;;;;;;;5072551;28;20208;-67
2020/12/22 14:37:18;;;;;;;2.60;2.50;;;;;;;;;;5072599;28;20249;-67
2020/12/22 14:39:44;;;;;;;2.90;2.70;;;;;;;;;;5072673;28;20215;-67
2020/12/22 14:42:14;;;;;;;3.20;3.00;;;;;;;;;;5064843;28;20681;-67
2020/12/22 14:44:40;;;;;;;2.60;2.50;;;;;;;;;;5052449;28;20200;-67
2020/12/22 14:47:07;;;;;;;3.40;3.20;;;;;;;;;;5053219;28;21188;-68
2020/12/22 14:49:34;;;;;;;3.17;2.97;;;;;;;;;;5054726;28;20583;-67
2020/12/22 14:52:00;;;;;;;3.67;2.90;;;;;;;;;;5052194;28;20620;-67